createdAt,value
2019-04-01T15:45:56.235Z,57.70
2019-04-01T15:48:47.682Z,58.90
2019-04-01T15:51:39.728Z,59.20
2019-04-01T15:54:32.475Z,60.50
2019-04-01T15:57:24.289Z,62.00
2019-04-01T16:00:19.501Z,63.20
2019-04-01T16:03:11.106Z,63.00
2019-04-01T16:06:03.174Z,63.60
2019-04-01T16:08:55.044Z,65.90
2019-04-01T16:11:47.466Z,67.20
2019-04-01T16:14:40.235Z,68.50
2019-04-01T16:17:33.116Z,65.70
2019-04-01T16:20:26.209Z,69.50
2019-04-01T16:23:19.155Z,68.20
2019-04-01T16:26:11.794Z,66.70
2019-04-01T16:29:03.392Z,68.60
2019-04-01T16:31:55.557Z,69.50
2019-04-01T16:34:47.895Z,70.40
2019-04-01T16:37:40.109Z,68.80
2019-04-01T16:40:31.540Z,70.30
2019-04-01T16:43:23.083Z,71.90
2019-04-01T16:46:14.672Z,72.20
2019-04-01T16:49:07.544Z,71.60
2019-04-01T16:52:00.250Z,72.90
2019-04-01T16:55:12.298Z,72.80
2019-04-01T16:58:05.038Z,73.40
2019-04-01T17:00:56.397Z,74.00
2019-04-01T17:03:48.121Z,72.60
2019-04-01T17:06:40.474Z,72.50
2019-04-01T17:09:32.141Z,74.30
2019-04-01T17:12:23.798Z,73.50
2019-04-01T17:15:15.237Z,75.10
2019-04-01T17:18:07.014Z,78.60
2019-04-01T17:20:58.482Z,78.30
2019-04-01T17:23:50.392Z,78.30
2019-04-01T17:27:03.387Z,80.90
2019-04-01T17:29:55.538Z,80.00
2019-04-01T17:32:46.833Z,78.50
2019-04-01T17:35:38.485Z,80.10
2019-04-01T17:38:30.706Z,81.00
2019-04-01T17:41:22.370Z,83.10
2019-04-01T17:44:14.228Z,84.10
2019-04-01T17:47:06.932Z,84.70
2019-04-01T17:49:59.372Z,89.60
2019-04-01T17:52:51.711Z,90.30
2019-04-01T17:55:45.765Z,90.90
2019-04-01T17:58:37.395Z,91.60
2019-04-01T18:01:29.034Z,90.50
2019-04-01T18:04:21.463Z,92.10
2019-04-01T18:07:13.924Z,93.10
2019-04-01T18:10:06.180Z,93.70
2019-04-01T18:12:58.190Z,94.80
2019-04-01T18:15:49.877Z,95.40
2019-04-01T18:18:41.358Z,95.70
2019-04-01T18:21:32.944Z,96.20
2019-04-01T18:24:24.583Z,97.00
2019-04-01T18:27:16.153Z,97.00
2019-04-01T18:30:09.390Z,97.60
2019-04-01T18:33:01.043Z,98.30
2019-04-01T18:35:54.256Z,98.80
2019-04-01T18:38:46.497Z,99.20
2019-04-01T18:41:38.428Z,99.50
2019-04-01T18:44:30.155Z,99.80
2019-04-01T18:47:21.861Z,99.90
2019-04-01T18:50:14.269Z,99.90
2019-04-01T18:53:07.361Z,99.90
2019-04-01T18:56:00.212Z,99.90
2019-04-01T18:58:53.148Z,99.90
2019-04-01T19:01:45.779Z,99.90
2019-04-01T19:04:37.402Z,99.90
2019-04-01T19:07:29.173Z,99.90
2019-04-01T19:10:21.011Z,99.90
2019-04-01T19:13:13.145Z,99.90
2019-04-01T19:16:05.897Z,99.90
2019-04-01T19:18:58.877Z,99.90
2019-04-01T19:21:50.568Z,99.90
2019-04-01T19:24:42.192Z,99.90
2019-04-01T19:27:33.882Z,99.90
2019-04-01T19:30:25.547Z,99.90
2019-04-01T19:33:17.257Z,99.90
2019-04-01T19:36:08.837Z,99.90
2019-04-01T19:39:00.787Z,99.90
2019-04-01T19:41:53.787Z,99.90
2019-04-01T19:44:45.513Z,99.90
2019-04-01T19:47:37.267Z,99.90
2019-04-01T19:50:29.088Z,99.90
2019-04-01T19:53:20.914Z,99.90
2019-04-01T19:56:12.752Z,99.90
2019-04-01T19:59:04.742Z,99.90
2019-04-01T20:01:56.364Z,99.90
2019-04-01T20:04:49.142Z,99.90
2019-04-01T20:07:41.080Z,99.90
2019-04-01T20:10:32.566Z,99.90
2019-04-01T20:13:24.847Z,99.90
2019-04-01T20:16:16.426Z,99.90
2019-04-01T20:19:08.251Z,99.90
2019-04-01T20:21:59.930Z,99.90
2019-04-01T20:24:51.594Z,99.90
2019-04-01T20:27:43.226Z,99.90
2019-04-01T20:30:37.963Z,99.90
2019-04-01T20:33:31.952Z,99.90
2019-04-01T20:36:28.778Z,99.90
2019-04-01T20:39:16.518Z,99.90
2019-04-01T20:42:08.238Z,99.90
2019-04-01T20:45:00.259Z,99.90
2019-04-01T20:47:51.621Z,99.90
2019-04-01T20:50:43.235Z,99.90
2019-04-01T20:53:34.670Z,99.90
2019-04-01T20:56:26.942Z,99.80
2019-04-01T20:59:18.431Z,99.70
2019-04-01T21:02:09.773Z,99.90
2019-04-01T21:05:01.975Z,99.90
2019-04-01T21:07:53.467Z,99.90
2019-04-01T21:10:45.000Z,99.90
2019-04-01T21:13:36.415Z,99.90
2019-04-01T21:16:28.101Z,99.90
2019-04-01T21:19:19.918Z,99.90
2019-04-01T21:22:11.490Z,99.90
2019-04-01T21:25:02.942Z,99.90
2019-04-01T21:27:54.817Z,99.90
2019-04-01T21:30:46.361Z,99.90
2019-04-01T21:33:37.872Z,99.90
2019-04-01T21:36:29.616Z,99.90
2019-04-01T21:39:21.312Z,99.90
2019-04-01T21:42:12.857Z,99.90
2019-04-01T21:45:06.018Z,99.90
2019-04-01T21:47:57.565Z,99.90
